createdAt,value
2023-02-25T00:00:34.492Z,17.60
2023-02-25T00:03:01.806Z,24.63
2023-02-25T00:05:31.768Z,23.97
2023-02-25T00:07:58.632Z,22.63
2023-02-25T00:10:25.135Z,25.30
2023-02-25T00:12:51.673Z,27.17
2023-02-25T00:15:18.283Z,30.33
2023-02-25T00:17:44.859Z,30.53
2023-02-25T00:20:13.456Z,33.00
2023-02-25T00:22:39.978Z,34.33
2023-02-25T00:25:07.043Z,35.40
2023-02-25T00:27:33.559Z,36.50
2023-02-25T00:30:00.697Z,37.30
2023-02-25T00:32:27.324Z,37.60
2023-02-25T00:34:53.863Z,36.93
2023-02-25T00:37:20.415Z,34.80
2023-02-25T00:39:46.964Z,34.80
2023-02-25T00:42:17.097Z,35.83
2023-02-25T00:44:44.260Z,34.10
2023-02-25T00:47:10.760Z,34.23
2023-02-25T00:49:37.233Z,34.00
2023-02-25T00:52:03.833Z,33.40
2023-02-25T00:54:30.357Z,34.47
2023-02-25T00:56:56.945Z,36.47
2023-02-25T00:59:23.437Z,36.03
2023-02-25T01:01:50.123Z,39.17
2023-02-25T01:04:16.719Z,36.93
2023-02-25T01:06:43.357Z,41.37
2023-02-25T01:09:14.205Z,44.30
2023-02-25T01:11:41.672Z,42.20
2023-02-25T01:14:08.949Z,41.20
2023-02-25T01:16:35.752Z,39.50
2023-02-25T01:19:03.394Z,37.57
2023-02-25T01:21:34.217Z,39.87
2023-02-25T01:24:05.068Z,37.47
2023-02-25T01:26:32.184Z,40.57
2023-02-25T01:28:58.647Z,37.77
2023-02-25T01:31:29.423Z,35.53
2023-02-25T01:33:59.450Z,36.33
2023-02-25T01:36:26.302Z,34.30
2023-02-25T01:38:52.809Z,33.47
2023-02-25T01:41:19.381Z,32.27
2023-02-25T01:44:04.578Z,30.30
2023-02-25T01:46:31.139Z,30.80
2023-02-25T01:48:57.681Z,29.37
2023-02-25T01:51:27.229Z,29.00
2023-02-25T01:53:54.754Z,28.50
2023-02-25T01:56:22.660Z,26.67
2023-02-25T01:58:49.300Z,25.27
2023-02-25T02:01:16.170Z,23.77
2023-02-25T02:03:42.700Z,25.10
2023-02-25T02:06:12.659Z,21.53
2023-02-25T02:08:39.165Z,20.27
2023-02-25T02:11:06.462Z,19.57
2023-02-25T02:13:33.946Z,18.83
2023-02-25T02:16:19.503Z,17.93
2023-02-25T02:18:49.830Z,19.23
2023-02-25T02:21:19.391Z,18.67
2023-02-25T02:23:56.124Z,18.30
2023-02-25T02:26:37.810Z,18.47
2023-02-25T02:29:07.763Z,17.77
2023-02-25T02:31:46.742Z,19.87
2023-02-25T02:34:16.871Z,17.33
2023-02-25T02:36:52.866Z,16.40
2023-02-25T02:39:19.343Z,16.17
2023-02-25T02:42:09.187Z,16.90
2023-02-25T02:44:54.444Z,17.00
2023-02-25T02:47:25.179Z,16.10
2023-02-25T02:49:53.983Z,15.87
2023-02-25T02:52:24.294Z,18.03
2023-02-25T02:54:52.993Z,18.90
2023-02-25T02:57:19.591Z,17.20
2023-02-25T02:59:47.553Z,17.73
2023-02-25T03:02:18.102Z,16.63
2023-02-25T03:04:45.522Z,16.70
2023-02-25T03:07:12.469Z,15.80
2023-02-25T03:09:45.167Z,15.43
2023-02-25T03:12:11.661Z,14.43
2023-02-25T03:14:38.292Z,14.40
2023-02-25T03:17:09.382Z,14.20
2023-02-25T03:19:35.870Z,13.60
2023-02-25T03:22:04.474Z,13.47
2023-02-25T03:24:41.946Z,12.93
2023-02-25T03:27:40.925Z,12.77
2023-02-25T03:30:13.207Z,11.07
2023-02-25T03:32:43.646Z,12.27
2023-02-25T03:35:10.628Z,11.27
2023-02-25T03:37:37.386Z,10.30
2023-02-25T03:40:13.894Z,9.20
2023-02-25T03:42:44.129Z,9.30
2023-02-25T03:45:10.938Z,8.70
2023-02-25T03:47:37.681Z,8.70
2023-02-25T03:50:04.266Z,7.40
2023-02-25T03:52:30.728Z,7.97
2023-02-25T03:54:57.730Z,7.60
2023-02-25T03:57:27.547Z,7.13
2023-02-25T03:59:56.453Z,8.50
2023-02-25T04:02:30.076Z,8.93
2023-02-25T04:04:57.964Z,8.97
2023-02-25T04:07:24.603Z,10.03
2023-02-25T04:09:51.076Z,11.57
2023-02-25T04:12:17.605Z,11.87
2023-02-25T04:14:44.108Z,11.87
2023-02-25T04:17:11.602Z,12.67
2023-02-25T04:19:38.099Z,11.53
2023-02-25T04:22:08.014Z,12.30
2023-02-25T04:24:34.556Z,11.33
2023-02-25T04:27:01.845Z,12.40
2023-02-25T04:29:28.814Z,11.87
2023-02-25T04:31:55.393Z,12.07
2023-02-25T04:34:22.036Z,12.83
2023-02-25T04:36:48.526Z,11.83
2023-02-25T04:39:15.333Z,12.07
2023-02-25T04:41:41.877Z,11.70
2023-02-25T04:44:08.540Z,12.77
2023-02-25T04:46:36.073Z,11.33
2023-02-25T04:49:02.735Z,11.47
2023-02-25T04:51:29.305Z,10.53
2023-02-25T04:53:55.885Z,11.17
2023-02-25T04:56:22.742Z,10.93
2023-02-25T04:58:49.416Z,9.93
2023-02-25T05:01:15.947Z,10.37
2023-02-25T05:03:42.496Z,10.43
2023-02-25T05:06:09.135Z,10.50
2023-02-25T05:08:35.815Z,10.87
2023-02-25T05:11:02.341Z,10.73
2023-02-25T05:13:29.355Z,10.80
2023-02-25T05:16:05.943Z,11.97
2023-02-25T05:18:32.456Z,11.60
2023-02-25T05:20:59.898Z,11.73
2023-02-25T05:23:26.461Z,12.27
2023-02-25T05:25:52.958Z,11.93
2023-02-25T05:28:19.531Z,11.47
2023-02-25T05:30:46.121Z,10.87
2023-02-25T05:33:13.714Z,10.73
2023-02-25T05:35:40.912Z,10.03
2023-02-25T05:38:07.385Z,10.33
2023-02-25T05:40:33.886Z,10.30
2023-02-25T05:43:00.829Z,9.77
2023-02-25T05:45:27.423Z,8.93
2023-02-25T05:47:53.994Z,9.47
2023-02-25T05:50:20.468Z,9.30
2023-02-25T05:52:47.108Z,9.70
2023-02-25T05:55:14.022Z,10.50
2023-02-25T05:57:40.531Z,10.00
2023-02-25T06:00:09.873Z,8.77
2023-02-25T06:02:36.518Z,8.63
2023-02-25T06:05:03.070Z,8.93
2023-02-25T06:07:31.013Z,8.60
2023-02-25T06:10:01.062Z,10.10
2023-02-25T06:12:31.464Z,10.00
2023-02-25T06:14:58.148Z,10.23
2023-02-25T06:17:27.684Z,11.30
2023-02-25T06:19:54.229Z,10.20
2023-02-25T06:22:21.229Z,12.33
2023-02-25T06:24:47.781Z,11.10
2023-02-25T06:27:14.488Z,11.63
2023-02-25T06:29:41.791Z,14.00
2023-02-25T06:32:09.201Z,14.53
2023-02-25T06:34:35.839Z,13.40
2023-02-25T06:37:02.402Z,12.80
2023-02-25T06:39:28.918Z,13.20
2023-02-25T06:41:55.469Z,12.77
2023-02-25T06:44:22.082Z,11.07
2023-02-25T06:46:52.137Z,12.83
2023-02-25T06:49:18.903Z,11.43
2023-02-25T06:51:45.402Z,10.10
2023-02-25T06:54:11.958Z,10.77
2023-02-25T06:56:38.446Z,11.23
2023-02-25T06:59:07.296Z,10.27
2023-02-25T07:01:33.988Z,8.40
2023-02-25T07:04:00.623Z,8.60
2023-02-25T07:06:27.341Z,9.10
2023-02-25T07:08:54.018Z,9.73
2023-02-25T07:11:21.826Z,9.87
2023-02-25T07:13:48.496Z,10.47
2023-02-25T07:16:15.294Z,10.13
2023-02-25T07:18:41.983Z,9.70
2023-02-25T07:21:08.512Z,9.10
2023-02-25T07:23:35.024Z,9.73
2023-02-25T07:26:06.164Z,9.33
2023-02-25T07:28:35.826Z,9.00
2023-02-25T07:31:03.288Z,8.60
2023-02-25T07:33:38.684Z,8.63
2023-02-25T07:36:08.275Z,9.30
2023-02-25T07:38:34.770Z,4.83
2023-02-25T07:41:05.390Z,4.47
2023-02-25T07:43:32.031Z,3.70
2023-02-25T07:45:58.579Z,4.03
2023-02-25T07:48:25.142Z,4.07
2023-02-25T07:50:51.894Z,3.43
2023-02-25T07:53:22.686Z,4.53
2023-02-25T07:55:49.579Z,4.20
2023-02-25T07:58:16.137Z,5.27
2023-02-25T08:00:45.169Z,4.87
2023-02-25T08:03:11.831Z,5.03
2023-02-25T08:05:38.644Z,6.53
2023-02-25T08:08:05.426Z,7.57
2023-02-25T08:10:32.036Z,9.27
2023-02-25T08:12:58.778Z,9.17
2023-02-25T08:15:28.587Z,9.30
2023-02-25T08:17:55.987Z,9.60
2023-02-25T08:20:22.514Z,7.40
2023-02-25T08:22:49.138Z,8.40
2023-02-25T08:25:15.892Z,7.60
2023-02-25T08:27:44.222Z,8.20
2023-02-25T08:30:16.780Z,9.30
2023-02-25T08:32:43.525Z,8.77
2023-02-25T08:35:10.315Z,7.97
2023-02-25T08:37:36.838Z,4.37
2023-02-25T08:40:09.429Z,4.60
2023-02-25T08:42:36.388Z,4.33
2023-02-25T08:45:06.330Z,4.60
2023-02-25T08:47:33.608Z,3.50
2023-02-25T08:50:00.819Z,3.50
2023-02-25T08:52:33.656Z,4.80
2023-02-25T08:55:03.458Z,4.53
2023-02-25T08:57:30.230Z,4.73
2023-02-25T08:59:58.423Z,4.07
2023-02-25T09:02:24.903Z,4.43
2023-02-25T09:04:51.634Z,3.20
2023-02-25T09:07:18.220Z,3.40
2023-02-25T09:09:44.822Z,3.03
2023-02-25T09:12:13.597Z,3.17
2023-02-25T09:14:40.256Z,2.93
2023-02-25T09:17:06.947Z,2.87
2023-02-25T09:19:33.782Z,3.13
2023-02-25T09:22:00.335Z,3.33
2023-02-25T09:24:30.038Z,2.10
2023-02-25T09:26:56.663Z,1.70
2023-02-25T09:29:23.149Z,2.13
2023-02-25T09:31:49.864Z,1.73
2023-02-25T09:34:16.528Z,1.70
2023-02-25T09:36:43.143Z,1.70
2023-02-25T09:39:10.604Z,2.40
2023-02-25T09:41:40.169Z,1.67
2023-02-25T09:44:21.825Z,1.20
2023-02-25T09:46:52.920Z,1.20
2023-02-25T09:49:28.161Z,1.37
2023-02-25T09:51:57.032Z,1.07
2023-02-25T09:54:30.412Z,1.50
2023-02-25T09:56:59.260Z,1.90
2023-02-25T09:59:26.363Z,1.87
2023-02-25T10:02:16.367Z,1.20
2023-02-25T10:05:06.133Z,1.30
2023-02-25T10:07:36.448Z,1.70
2023-02-25T10:10:08.537Z,1.33
2023-02-25T10:12:36.879Z,1.40
2023-02-25T10:15:03.488Z,1.70
2023-02-25T10:17:29.954Z,1.00
2023-02-25T10:20:18.504Z,1.10
2023-02-25T10:22:47.602Z,1.10
2023-02-25T10:25:18.994Z,1.10
2023-02-25T10:27:55.252Z,1.30
2023-02-25T10:30:37.300Z,1.77
2023-02-25T10:33:05.863Z,1.57
2023-02-25T10:35:33.292Z,1.70
2023-02-25T10:37:59.874Z,1.77
2023-02-25T10:40:29.424Z,1.30
2023-02-25T10:42:56.718Z,1.90
2023-02-25T10:45:26.979Z,1.60
2023-02-25T10:48:12.482Z,1.70
2023-02-25T10:50:45.936Z,1.43
2023-02-25T10:53:16.749Z,1.97
2023-02-25T10:55:43.431Z,2.27
2023-02-25T10:58:25.286Z,2.07
2023-02-25T11:00:59.136Z,1.70
2023-02-25T11:03:25.991Z,2.13
2023-02-25T11:05:52.540Z,2.33
2023-02-25T11:08:29.845Z,2.30
2023-02-25T11:11:17.292Z,2.10
2023-02-25T11:13:43.949Z,2.30
2023-02-25T11:16:12.573Z,2.27
2023-02-25T11:18:39.721Z,2.97
2023-02-25T11:21:10.082Z,1.80
2023-02-25T11:23:38.637Z,2.27
2023-02-25T11:26:06.912Z,1.80
2023-02-25T11:28:35.084Z,1.83
2023-02-25T11:31:06.306Z,1.70
2023-02-25T11:33:34.031Z,2.53
2023-02-25T11:36:00.873Z,2.80
2023-02-25T11:38:28.602Z,3.33
2023-02-25T11:40:55.324Z,2.33
2023-02-25T11:45:59.483Z,2.30
2023-02-25T11:48:27.894Z,1.80
2023-02-25T11:51:04.816Z,1.40
2023-02-25T11:53:36.533Z,1.40
2023-02-25T11:56:06.221Z,2.00
2023-02-25T11:58:50.274Z,2.10
2023-02-25T12:01:19.894Z,1.90
2023-02-25T12:04:05.416Z,2.17
2023-02-25T12:06:50.832Z,1.83
2023-02-25T12:09:26.355Z,1.20
2023-02-25T12:12:14.549Z,0.90
2023-02-25T12:15:19.484Z,1.10
2023-02-25T12:17:46.687Z,1.20
2023-02-25T12:20:18.913Z,1.03
2023-02-25T12:23:04.283Z,2.17
2023-02-25T12:25:45.468Z,1.47
2023-02-25T12:28:30.886Z,1.67
2023-02-25T12:31:12.211Z,1.70
2023-02-25T12:33:48.538Z,1.40
2023-02-25T12:36:20.904Z,2.30
2023-02-25T12:39:06.223Z,1.80
2023-02-25T12:41:39.666Z,1.70
2023-02-25T12:44:15.553Z,12.53
2023-02-25T12:47:02.070Z,6.83
2023-02-25T12:49:34.838Z,3.77
2023-02-25T12:52:09.943Z,1.50
2023-02-25T12:54:51.873Z,0.90
2023-02-25T12:57:18.414Z,1.30
2023-02-25T12:59:54.138Z,3.40
2023-02-25T13:02:22.554Z,3.97
2023-02-25T13:04:51.946Z,2.20
2023-02-25T13:07:18.724Z,1.80
2023-02-25T13:10:04.374Z,1.13
2023-02-25T13:12:30.836Z,1.10
2023-02-25T13:14:59.220Z,0.80
2023-02-25T13:17:28.126Z,0.60
2023-02-25T13:19:54.587Z,0.70
2023-02-25T13:22:30.464Z,0.90
2023-02-25T13:25:10.713Z,0.60
2023-02-25T13:27:49.231Z,0.70
2023-02-25T13:30:15.977Z,0.70
2023-02-25T13:32:42.591Z,0.67
2023-02-25T13:35:26.136Z,0.77
2023-02-25T13:38:08.752Z,0.87
2023-02-25T13:40:37.565Z,1.20
2023-02-25T13:43:04.104Z,2.10
2023-02-25T13:45:49.499Z,1.87
2023-02-25T13:48:38.913Z,1.93
2023-02-25T13:51:11.730Z,2.43
2023-02-25T13:53:58.527Z,2.13
2023-02-25T13:56:51.478Z,1.20
2023-02-25T13:59:36.953Z,1.47
2023-02-25T14:02:04.206Z,1.83
2023-02-25T14:04:37.876Z,2.43
2023-02-25T14:07:13.778Z,2.50
2023-02-25T14:09:44.198Z,2.20
2023-02-25T14:12:29.626Z,1.73
2023-02-25T14:14:57.337Z,1.10
2023-02-25T14:17:23.891Z,1.17
2023-02-25T14:20:02.946Z,0.97
2023-02-25T14:22:48.172Z,1.57
2023-02-25T14:25:16.956Z,1.50
2023-02-25T14:27:43.463Z,1.87
2023-02-25T14:30:18.866Z,1.90
2023-02-25T14:32:49.395Z,2.17
2023-02-25T14:35:29.994Z,1.90
2023-02-25T14:38:01.978Z,2.57
2023-02-25T14:40:29.977Z,1.70
2023-02-25T14:42:56.574Z,1.80
2023-02-25T14:45:24.001Z,1.87
2023-02-25T14:47:50.482Z,1.87
2023-02-25T14:50:28.539Z,1.60
2023-02-25T14:53:04.041Z,1.87
2023-02-25T14:55:36.612Z,1.77
2023-02-25T14:58:22.042Z,1.50
2023-02-25T15:01:03.913Z,1.60
2023-02-25T15:03:36.395Z,2.27
2023-02-25T15:06:02.895Z,2.17
2023-02-25T15:08:32.426Z,1.83
2023-02-25T15:11:05.146Z,1.83
2023-02-25T15:13:40.831Z,1.70
2023-02-25T15:16:17.531Z,1.70
2023-02-25T15:19:02.715Z,2.03
2023-02-25T15:21:38.620Z,2.43
2023-02-25T15:24:10.121Z,2.80
2023-02-25T15:26:40.814Z,3.43
2023-02-25T15:29:19.167Z,3.73
2023-02-25T15:32:01.343Z,2.30
2023-02-25T15:34:29.337Z,2.20
2023-02-25T15:37:10.216Z,2.90
2023-02-25T15:39:42.983Z,2.43
2023-02-25T15:42:11.073Z,2.00
2023-02-25T15:44:38.582Z,2.40
2023-02-25T15:47:11.055Z,2.67
2023-02-25T15:49:38.672Z,3.00
2023-02-25T15:52:05.709Z,3.60
2023-02-25T15:54:32.199Z,4.00
2023-02-25T15:57:03.853Z,4.10
2023-02-25T15:59:43.502Z,3.87
2023-02-25T16:02:33.389Z,3.53
2023-02-25T16:05:00.109Z,1.70
2023-02-25T16:07:33.364Z,2.00
2023-02-25T16:10:02.987Z,1.93
2023-02-25T16:12:29.972Z,2.23
2023-02-25T16:14:56.817Z,2.43
2023-02-25T16:17:24.906Z,4.00
2023-02-25T16:19:52.260Z,3.50
2023-02-25T16:22:19.968Z,2.63
2023-02-25T16:24:48.307Z,2.37
2023-02-25T16:27:33.732Z,2.37
2023-02-25T16:30:09.772Z,2.33
2023-02-25T16:32:39.495Z,2.60
2023-02-25T16:35:15.289Z,3.20
2023-02-25T16:37:51.569Z,3.67
2023-02-25T16:40:37.761Z,4.50
2023-02-25T16:43:04.370Z,5.73
2023-02-25T16:45:47.231Z,4.50
2023-02-25T16:48:18.695Z,5.33
2023-02-25T16:50:46.013Z,4.97
2023-02-25T16:53:15.925Z,5.40
2023-02-25T16:55:45.500Z,4.40
2023-02-25T16:58:20.429Z,2.90
2023-02-25T17:00:53.909Z,2.90
2023-02-25T17:03:23.542Z,3.03
2023-02-25T17:06:09.062Z,2.67
2023-02-25T17:08:37.834Z,2.73
2023-02-25T17:11:06.564Z,2.53
2023-02-25T17:13:36.826Z,3.50
2023-02-25T17:16:08.831Z,4.13
2023-02-25T17:18:44.286Z,3.80
2023-02-25T17:21:30.370Z,4.97
2023-02-25T17:23:57.823Z,5.93
2023-02-25T17:26:25.493Z,6.50
2023-02-25T17:28:53.193Z,5.93
2023-02-25T17:31:20.823Z,5.37
2023-02-25T17:33:48.648Z,5.10
2023-02-25T17:36:16.610Z,3.90
2023-02-25T17:38:46.234Z,3.03
2023-02-25T17:41:16.351Z,3.10
2023-02-25T17:43:42.873Z,2.93
2023-02-25T17:46:21.814Z,3.20
2023-02-25T17:48:53.143Z,3.40
2023-02-25T17:51:19.641Z,2.73
2023-02-25T17:53:50.426Z,2.73
2023-02-25T17:56:16.896Z,2.40
2023-02-25T17:58:43.772Z,2.50
2023-02-25T18:01:17.988Z,2.60
2023-02-25T18:03:45.117Z,3.17
2023-02-25T18:06:30.481Z,3.77
2023-02-25T18:08:57.134Z,3.20
2023-02-25T18:11:23.624Z,3.13
2023-02-25T18:13:50.146Z,3.33
2023-02-25T18:16:27.220Z,3.43
2023-02-25T18:18:54.078Z,3.67
2023-02-25T18:21:20.575Z,2.90
2023-02-25T18:23:48.326Z,2.90
2023-02-25T18:26:18.896Z,2.67
2023-02-25T18:28:46.315Z,2.60
2023-02-25T18:31:14.840Z,2.50
2023-02-25T18:33:41.578Z,3.77
2023-02-25T18:36:09.129Z,3.87
2023-02-25T18:38:37.868Z,3.07
2023-02-25T18:41:06.318Z,3.23
2023-02-25T18:43:35.164Z,3.73
2023-02-25T18:46:01.901Z,4.03
2023-02-25T18:48:28.536Z,4.17
2023-02-25T18:50:56.466Z,4.73
2023-02-25T18:53:23.641Z,4.20
2023-02-25T18:55:50.758Z,3.10
2023-02-25T18:58:26.312Z,3.60
2023-02-25T19:00:53.927Z,5.00
2023-02-25T19:03:28.617Z,4.40
2023-02-25T19:05:58.025Z,4.80
2023-02-25T19:08:27.495Z,4.30
2023-02-25T19:10:54.048Z,4.10
2023-02-25T19:13:24.788Z,3.90
2023-02-25T19:15:51.263Z,4.17
2023-02-25T19:18:18.464Z,3.27
2023-02-25T19:20:44.991Z,3.83
2023-02-25T19:23:12.236Z,3.50
2023-02-25T19:25:38.804Z,3.80
2023-02-25T19:28:06.529Z,3.90
2023-02-25T19:30:34.981Z,4.03
2023-02-25T19:33:04.618Z,3.57
2023-02-25T19:35:31.860Z,3.90
2023-02-25T19:37:58.550Z,4.80
2023-02-25T19:40:25.167Z,4.50
2023-02-25T19:42:51.732Z,4.43
2023-02-25T19:45:19.130Z,4.10
2023-02-25T19:47:45.942Z,4.60
2023-02-25T19:50:12.560Z,6.20
2023-02-25T19:52:39.074Z,5.60
2023-02-25T19:55:06.838Z,5.07
2023-02-25T19:57:33.388Z,6.07
2023-02-25T19:59:59.950Z,6.80
2023-02-25T20:02:26.475Z,8.10
2023-02-25T20:04:56.879Z,8.30
2023-02-25T20:07:23.351Z,8.63
2023-02-25T20:09:49.847Z,8.10
2023-02-25T20:12:16.373Z,7.33
2023-02-25T20:14:42.992Z,5.30
2023-02-25T20:17:09.684Z,5.43
2023-02-25T20:19:36.292Z,6.10
2023-02-25T20:22:03.169Z,5.50
2023-02-25T20:24:30.000Z,5.77
2023-02-25T20:26:56.471Z,5.17
2023-02-25T20:29:23.301Z,4.97
2023-02-25T20:31:49.915Z,5.70
2023-02-25T20:34:20.456Z,4.80
2023-02-25T20:36:53.339Z,5.37
2023-02-25T20:39:25.766Z,6.20
2023-02-25T20:41:52.358Z,5.43
2023-02-25T20:44:18.958Z,5.70
2023-02-25T20:46:45.726Z,5.33
2023-02-25T20:49:12.600Z,4.73
2023-02-25T20:51:39.282Z,5.30
2023-02-25T20:54:05.947Z,5.80
2023-02-25T20:56:34.509Z,5.97
2023-02-25T20:59:01.051Z,5.17
2023-02-25T21:01:27.548Z,5.67
2023-02-25T21:03:54.207Z,6.10
2023-02-25T21:06:21.575Z,5.73
2023-02-25T21:08:48.204Z,6.63
2023-02-25T21:11:14.737Z,5.67
2023-02-25T21:13:41.285Z,5.87
2023-02-25T21:16:08.081Z,6.53
2023-02-25T21:18:34.606Z,6.10
2023-02-25T21:21:02.073Z,6.50
2023-02-25T21:23:28.867Z,7.73
2023-02-25T21:25:55.500Z,8.53
2023-02-25T21:28:22.468Z,8.73
2023-02-25T21:30:49.344Z,7.67
2023-02-25T21:33:16.122Z,7.77
2023-02-25T21:35:48.750Z,8.87
2023-02-25T21:38:15.345Z,9.33
2023-02-25T21:40:42.254Z,8.23
2023-02-25T21:43:08.768Z,9.27
2023-02-25T21:45:35.236Z,8.77
2023-02-25T21:48:01.737Z,7.33
2023-02-25T21:50:28.265Z,8.63
2023-02-25T21:52:54.903Z,8.80
2023-02-25T21:55:21.416Z,8.70
2023-02-25T21:57:47.958Z,8.43
2023-02-25T22:00:15.586Z,8.20
2023-02-25T22:02:42.132Z,7.43
2023-02-25T22:05:08.926Z,8.63
2023-02-25T22:07:35.436Z,8.20
2023-02-25T22:10:01.956Z,8.23
2023-02-25T22:12:28.731Z,12.43
2023-02-25T22:14:55.280Z,9.77
2023-02-25T22:17:21.815Z,8.67
2023-02-25T22:19:48.322Z,7.90
2023-02-25T22:22:15.361Z,6.80
2023-02-25T22:24:41.904Z,8.43
2023-02-25T22:27:08.457Z,7.30
2023-02-25T22:29:34.983Z,6.77
2023-02-25T22:32:01.589Z,6.83
2023-02-25T22:34:28.145Z,6.67
2023-02-25T22:36:54.723Z,7.00
2023-02-25T22:39:21.252Z,9.63
2023-02-25T22:41:47.709Z,7.60
2023-02-25T22:44:14.225Z,6.93
2023-02-25T22:46:41.444Z,6.70
2023-02-25T22:49:08.084Z,7.30
2023-02-25T22:51:35.843Z,6.33
2023-02-25T22:54:04.223Z,5.80
2023-02-25T22:56:30.732Z,6.37
2023-02-25T22:58:57.312Z,6.87
2023-02-25T23:01:24.325Z,5.83
2023-02-25T23:03:51.116Z,6.43
2023-02-25T23:06:18.098Z,6.40
2023-02-25T23:08:44.642Z,5.07
2023-02-25T23:11:12.459Z,5.17
2023-02-25T23:13:46.056Z,3.70
2023-02-25T23:16:13.808Z,3.83
2023-02-25T23:18:40.401Z,4.17
2023-02-25T23:21:09.312Z,4.20
2023-02-25T23:23:38.828Z,3.67
2023-02-25T23:26:06.563Z,4.13
2023-02-25T23:28:33.583Z,4.27
2023-02-25T23:31:00.329Z,4.17
2023-02-25T23:33:26.976Z,5.57
2023-02-25T23:35:53.472Z,9.47
2023-02-25T23:38:20.080Z,7.83
2023-02-25T23:40:46.884Z,5.37
2023-02-25T23:43:13.429Z,5.57
2023-02-25T23:45:40.265Z,5.23
2023-02-25T23:48:06.766Z,6.23
2023-02-25T23:50:33.273Z,5.20
2023-02-25T23:52:59.775Z,5.27
2023-02-25T23:55:26.297Z,4.37
2023-02-25T23:57:52.868Z,5.27
